sensor_id;sensor_type;location;lat;lon;timestamp;P1;durP1;ratioP1;P2;durP2;ratioP2
66342;SDS011;53144;51.524;5.080;2022-12-18T00:01:24;61.63;;;23.23;;
66342;SDS011;53144;51.524;5.080;2022-12-18T00:04:00;62.75;;;23.15;;
66342;SDS011;53144;51.524;5.080;2022-12-18T00:06:27;65.05;;;24.17;;
66342;SDS011;53144;51.524;5.080;2022-12-18T00:08:58;60.35;;;21.70;;
66342;SDS011;53144;51.524;5.080;2022-12-18T00:11:28;72.25;;;21.90;;
66342;SDS011;53144;51.524;5.080;2022-12-18T00:13:56;62.53;;;22.92;;
66342;SDS011;53144;51.524;5.080;2022-12-18T00:16:28;58.42;;;21.63;;
66342;SDS011;53144;51.524;5.080;2022-12-18T00:18:57;53.03;;;21.60;;
66342;SDS011;53144;51.524;5.080;2022-12-18T00:21:23;68.90;;;23.08;;
66342;SDS011;53144;51.524;5.080;2022-12-18T00:23:51;58.88;;;21.58;;
66342;SDS011;53144;51.524;5.080;2022-12-18T00:26:20;59.83;;;21.02;;
66342;SDS011;53144;51.524;5.080;2022-12-18T00:28:48;56.63;;;20.70;;
66342;SDS011;53144;51.524;5.080;2022-12-18T00:31:16;54.88;;;21.02;;
66342;SDS011;53144;51.524;5.080;2022-12-18T00:33:43;57.72;;;21.10;;
66342;SDS011;53144;51.524;5.080;2022-12-18T00:36:10;55.92;;;19.90;;
66342;SDS011;53144;51.524;5.080;2022-12-18T00:38:45;54.83;;;21.10;;
66342;SDS011;53144;51.524;5.080;2022-12-18T00:41:12;53.22;;;20.10;;
66342;SDS011;53144;51.524;5.080;2022-12-18T00:43:39;51.83;;;21.33;;
66342;SDS011;53144;51.524;5.080;2022-12-18T00:46:05;52.15;;;20.08;;
66342;SDS011;53144;51.524;5.080;2022-12-18T00:48:33;55.63;;;21.58;;
66342;SDS011;53144;51.524;5.080;2022-12-18T00:50:58;49.33;;;20.30;;
66342;SDS011;53144;51.524;5.080;2022-12-18T00:53:24;51.63;;;19.85;;
66342;SDS011;53144;51.524;5.080;2022-12-18T00:55:49;47.08;;;18.35;;
66342;SDS011;53144;51.524;5.080;2022-12-18T00:58:16;45.35;;;20.15;;
66342;SDS011;53144;51.524;5.080;2022-12-18T01:00:42;49.78;;;18.42;;
66342;SDS011;53144;51.524;5.080;2022-12-18T01:03:09;57.05;;;20.60;;
66342;SDS011;53144;51.524;5.080;2022-12-18T01:05:38;46.15;;;18.80;;
66342;SDS011;53144;51.524;5.080;2022-12-18T01:08:05;49.15;;;19.27;;
66342;SDS011;53144;51.524;5.080;2022-12-18T01:10:30;47.85;;;19.55;;
66342;SDS011;53144;51.524;5.080;2022-12-18T01:12:56;47.53;;;18.77;;
66342;SDS011;53144;51.524;5.080;2022-12-18T01:15:21;42.10;;;18.13;;
66342;SDS011;53144;51.524;5.080;2022-12-18T01:17:47;47.75;;;18.90;;
66342;SDS011;53144;51.524;5.080;2022-12-18T01:20:12;41.63;;;18.13;;
66342;SDS011;53144;51.524;5.080;2022-12-18T01:22:41;47.78;;;19.33;;
66342;SDS011;53144;51.524;5.080;2022-12-18T01:25:07;53.85;;;19.60;;
66342;SDS011;53144;51.524;5.080;2022-12-18T01:27:33;49.40;;;19.30;;
66342;SDS011;53144;51.524;5.080;2022-12-18T01:29:59;47.60;;;18.33;;
66342;SDS011;53144;51.524;5.080;2022-12-18T01:32:29;47.15;;;19.00;;
66342;SDS011;53144;51.524;5.080;2022-12-18T01:35:07;48.28;;;19.75;;
66342;SDS011;53144;51.524;5.080;2022-12-18T01:37:32;40.35;;;17.30;;
66342;SDS011;53144;51.524;5.080;2022-12-18T01:39:58;48.92;;;18.60;;
66342;SDS011;53144;51.524;5.080;2022-12-18T01:42:23;41.70;;;17.85;;
66342;SDS011;53144;51.524;5.080;2022-12-18T01:44:53;39.67;;;18.00;;
66342;SDS011;53144;51.524;5.080;2022-12-18T01:49:59;42.33;;;18.05;;
66342;SDS011;53144;51.524;5.080;2022-12-18T01:52:28;43.35;;;18.55;;
66342;SDS011;53144;51.524;5.080;2022-12-18T01:54:57;39.85;;;17.05;;
66342;SDS011;53144;51.524;5.080;2022-12-18T01:57:23;41.42;;;18.52;;
66342;SDS011;53144;51.524;5.080;2022-12-18T01:59:51;44.80;;;17.88;;
66342;SDS011;53144;51.524;5.080;2022-12-18T02:02:18;39.90;;;18.75;;
66342;SDS011;53144;51.524;5.080;2022-12-18T02:04:45;45.50;;;18.70;;
66342;SDS011;53144;51.524;5.080;2022-12-18T02:07:17;44.63;;;16.92;;
66342;SDS011;53144;51.524;5.080;2022-12-18T02:14:53;39.80;;;17.63;;
66342;SDS011;53144;51.524;5.080;2022-12-18T02:17:26;36.38;;;17.05;;
66342;SDS011;53144;51.524;5.080;2022-12-18T02:28:32;38.35;;;16.48;;
66342;SDS011;53144;51.524;5.080;2022-12-18T02:31:04;37.75;;;17.20;;
66342;SDS011;53144;51.524;5.080;2022-12-18T02:33:34;38.13;;;17.27;;
66342;SDS011;53144;51.524;5.080;2022-12-18T02:36:01;37.28;;;16.60;;
66342;SDS011;53144;51.524;5.080;2022-12-18T02:38:28;37.30;;;16.45;;
66342;SDS011;53144;51.524;5.080;2022-12-18T02:40:54;38.67;;;16.42;;
66342;SDS011;53144;51.524;5.080;2022-12-18T02:43:23;36.50;;;16.98;;
66342;SDS011;53144;51.524;5.080;2022-12-18T02:45:53;31.70;;;15.77;;
66342;SDS011;53144;51.524;5.080;2022-12-18T02:48:38;34.85;;;16.50;;
66342;SDS011;53144;51.524;5.080;2022-12-18T02:56:51;34.65;;;14.75;;
66342;SDS011;53144;51.524;5.080;2022-12-18T02:59:25;33.75;;;14.95;;
66342;SDS011;53144;51.524;5.080;2022-12-18T03:02:16;30.50;;;15.50;;
66342;SDS011;53144;51.524;5.080;2022-12-18T03:07:44;35.33;;;15.15;;
66342;SDS011;53144;51.524;5.080;2022-12-18T03:10:23;36.47;;;15.60;;
66342;SDS011;53144;51.524;5.080;2022-12-18T03:12:54;29.35;;;14.77;;
66342;SDS011;53144;51.524;5.080;2022-12-18T03:15:42;31.65;;;14.18;;
66342;SDS011;53144;51.524;5.080;2022-12-18T03:18:16;31.42;;;13.40;;
66342;SDS011;53144;51.524;5.080;2022-12-18T03:20:48;32.70;;;15.85;;
66342;SDS011;53144;51.524;5.080;2022-12-18T03:23:18;34.38;;;13.57;;
66342;SDS011;53144;51.524;5.080;2022-12-18T03:25:51;28.63;;;13.90;;
66342;SDS011;53144;51.524;5.080;2022-12-18T03:28:20;31.67;;;13.18;;
66342;SDS011;53144;51.524;5.080;2022-12-18T03:30:46;27.60;;;13.70;;
66342;SDS011;53144;51.524;5.080;2022-12-18T03:33:18;30.85;;;13.70;;
66342;SDS011;53144;51.524;5.080;2022-12-18T03:35:49;31.85;;;14.40;;
66342;SDS011;53144;51.524;5.080;2022-12-18T03:38:14;34.85;;;14.68;;
66342;SDS011;53144;51.524;5.080;2022-12-18T03:43:17;29.98;;;13.77;;
66342;SDS011;53144;51.524;5.080;2022-12-18T03:45:54;29.20;;;13.60;;
66342;SDS011;53144;51.524;5.080;2022-12-18T03:48:37;27.73;;;13.95;;
66342;SDS011;53144;51.524;5.080;2022-12-18T03:51:10;30.52;;;15.32;;
66342;SDS011;53144;51.524;5.080;2022-12-18T03:53:45;32.78;;;15.07;;
66342;SDS011;53144;51.524;5.080;2022-12-18T03:56:28;27.13;;;12.15;;
66342;SDS011;53144;51.524;5.080;2022-12-18T03:58:56;27.35;;;12.88;;
66342;SDS011;53144;51.524;5.080;2022-12-18T04:01:28;25.33;;;13.80;;
66342;SDS011;53144;51.524;5.080;2022-12-18T04:04:00;28.17;;;14.73;;
66342;SDS011;53144;51.524;5.080;2022-12-18T04:06:27;31.30;;;13.75;;
66342;SDS011;53144;51.524;5.080;2022-12-18T04:08:54;28.90;;;14.00;;
66342;SDS011;53144;51.524;5.080;2022-12-18T04:11:20;29.27;;;13.45;;
66342;SDS011;53144;51.524;5.080;2022-12-18T04:13:45;28.40;;;13.52;;
66342;SDS011;53144;51.524;5.080;2022-12-18T04:16:10;27.30;;;13.40;;
66342;SDS011;53144;51.524;5.080;2022-12-18T04:18:36;29.88;;;12.93;;
66342;SDS011;53144;51.524;5.080;2022-12-18T04:21:02;25.65;;;13.20;;
66342;SDS011;53144;51.524;5.080;2022-12-18T04:23:28;24.38;;;11.30;;
66342;SDS011;53144;51.524;5.080;2022-12-18T04:25:53;23.17;;;11.38;;
66342;SDS011;53144;51.524;5.080;2022-12-18T04:28:19;25.38;;;12.52;;
66342;SDS011;53144;51.524;5.080;2022-12-18T04:30:47;28.77;;;12.40;;
66342;SDS011;53144;51.524;5.080;2022-12-18T04:33:13;23.75;;;11.88;;
66342;SDS011;53144;51.524;5.080;2022-12-18T04:35:39;24.63;;;13.20;;
66342;SDS011;53144;51.524;5.080;2022-12-18T04:38:05;25.27;;;12.30;;
66342;SDS011;53144;51.524;5.080;2022-12-18T04:40:33;29.73;;;13.18;;
66342;SDS011;53144;51.524;5.080;2022-12-18T04:42:58;23.90;;;11.90;;
66342;SDS011;53144;51.524;5.080;2022-12-18T04:45:24;26.42;;;11.80;;
66342;SDS011;53144;51.524;5.080;2022-12-18T04:47:52;22.77;;;11.20;;
66342;SDS011;53144;51.524;5.080;2022-12-18T04:50:17;25.48;;;11.55;;
66342;SDS011;53144;51.524;5.080;2022-12-18T04:52:45;23.17;;;11.60;;
66342;SDS011;53144;51.524;5.080;2022-12-18T04:55:11;24.92;;;11.65;;
66342;SDS011;53144;51.524;5.080;2022-12-18T04:57:36;26.02;;;12.05;;
66342;SDS011;53144;51.524;5.080;2022-12-18T05:00:04;23.05;;;10.77;;
66342;SDS011;53144;51.524;5.080;2022-12-18T05:04:56;23.02;;;10.73;;
66342;SDS011;53144;51.524;5.080;2022-12-18T05:07:22;26.93;;;11.20;;
66342;SDS011;53144;51.524;5.080;2022-12-18T05:09:47;25.77;;;11.38;;
66342;SDS011;53144;51.524;5.080;2022-12-18T05:12:12;25.83;;;11.75;;
66342;SDS011;53144;51.524;5.080;2022-12-18T05:14:38;25.13;;;11.47;;
66342;SDS011;53144;51.524;5.080;2022-12-18T05:17:06;24.40;;;11.10;;
66342;SDS011;53144;51.524;5.080;2022-12-18T05:19:35;22.08;;;11.18;;
66342;SDS011;53144;51.524;5.080;2022-12-18T05:22:00;27.63;;;11.70;;
66342;SDS011;53144;51.524;5.080;2022-12-18T05:24:26;21.83;;;11.13;;
66342;SDS011;53144;51.524;5.080;2022-12-18T05:26:52;22.10;;;11.38;;
66342;SDS011;53144;51.524;5.080;2022-12-18T05:29:17;21.27;;;11.10;;
66342;SDS011;53144;51.524;5.080;2022-12-18T05:31:42;22.53;;;11.27;;
66342;SDS011;53144;51.524;5.080;2022-12-18T05:34:08;19.20;;;10.63;;
66342;SDS011;53144;51.524;5.080;2022-12-18T05:36:33;22.27;;;10.73;;
66342;SDS011;53144;51.524;5.080;2022-12-18T05:38:58;22.40;;;11.32;;
66342;SDS011;53144;51.524;5.080;2022-12-18T05:41:25;28.10;;;12.52;;
66342;SDS011;53144;51.524;5.080;2022-12-18T05:43:51;22.33;;;10.73;;
66342;SDS011;53144;51.524;5.080;2022-12-18T05:46:17;20.87;;;10.10;;
66342;SDS011;53144;51.524;5.080;2022-12-18T05:48:43;22.00;;;11.02;;
66342;SDS011;53144;51.524;5.080;2022-12-18T05:51:14;21.85;;;10.00;;
66342;SDS011;53144;51.524;5.080;2022-12-18T05:53:41;18.58;;;10.43;;
66342;SDS011;53144;51.524;5.080;2022-12-18T05:56:07;23.35;;;10.45;;
66342;SDS011;53144;51.524;5.080;2022-12-18T05:58:36;20.67;;;10.27;;
66342;SDS011;53144;51.524;5.080;2022-12-18T06:01:09;22.92;;;10.48;;
66342;SDS011;53144;51.524;5.080;2022-12-18T06:03:39;21.55;;;10.48;;
66342;SDS011;53144;51.524;5.080;2022-12-18T06:08:43;19.10;;;10.57;;
66342;SDS011;53144;51.524;5.080;2022-12-18T06:11:09;18.75;;;10.25;;
66342;SDS011;53144;51.524;5.080;2022-12-18T06:13:34;22.52;;;10.55;;
66342;SDS011;53144;51.524;5.080;2022-12-18T06:16:01;20.37;;;10.63;;
66342;SDS011;53144;51.524;5.080;2022-12-18T06:18:28;22.63;;;10.93;;
66342;SDS011;53144;51.524;5.080;2022-12-18T06:20:56;24.65;;;11.63;;
66342;SDS011;53144;51.524;5.080;2022-12-18T06:23:28;26.80;;;10.20;;
66342;SDS011;53144;51.524;5.080;2022-12-18T06:25:53;24.30;;;11.32;;
66342;SDS011;53144;51.524;5.080;2022-12-18T06:28:19;17.98;;;10.18;;
66342;SDS011;53144;51.524;5.080;2022-12-18T06:30:45;20.05;;;9.73;;
66342;SDS011;53144;51.524;5.080;2022-12-18T06:33:12;18.67;;;10.13;;
66342;SDS011;53144;51.524;5.080;2022-12-18T06:35:37;19.27;;;10.02;;
66342;SDS011;53144;51.524;5.080;2022-12-18T06:38:03;18.50;;;10.13;;
66342;SDS011;53144;51.524;5.080;2022-12-18T06:40:28;22.45;;;10.98;;
66342;SDS011;53144;51.524;5.080;2022-12-18T06:42:56;20.58;;;10.05;;
66342;SDS011;53144;51.524;5.080;2022-12-18T06:45:22;20.33;;;10.25;;
66342;SDS011;53144;51.524;5.080;2022-12-18T06:47:47;23.08;;;10.63;;
66342;SDS011;53144;51.524;5.080;2022-12-18T06:50:13;23.92;;;11.45;;
66342;SDS011;53144;51.524;5.080;2022-12-18T06:52:38;19.20;;;10.83;;
66342;SDS011;53144;51.524;5.080;2022-12-18T06:55:05;20.42;;;10.95;;
66342;SDS011;53144;51.524;5.080;2022-12-18T06:57:35;19.65;;;10.80;;
66342;SDS011;53144;51.524;5.080;2022-12-18T07:00:02;20.58;;;9.90;;
66342;SDS011;53144;51.524;5.080;2022-12-18T07:02:29;25.35;;;11.77;;
66342;SDS011;53144;51.524;5.080;2022-12-18T07:04:55;12.15;;;6.30;;
66342;SDS011;53144;51.524;5.080;2022-12-18T07:07:20;20.52;;;9.90;;
66342;SDS011;53144;51.524;5.080;2022-12-18T07:09:46;24.05;;;11.23;;
66342;SDS011;53144;51.524;5.080;2022-12-18T07:12:11;23.52;;;10.70;;
66342;SDS011;53144;51.524;5.080;2022-12-18T07:14:36;24.93;;;10.73;;
66342;SDS011;53144;51.524;5.080;2022-12-18T07:17:02;23.10;;;10.75;;
66342;SDS011;53144;51.524;5.080;2022-12-18T07:19:27;23.70;;;10.60;;
66342;SDS011;53144;51.524;5.080;2022-12-18T07:24:19;19.35;;;8.90;;
66342;SDS011;53144;51.524;5.080;2022-12-18T07:26:47;19.77;;;10.10;;
66342;SDS011;53144;51.524;5.080;2022-12-18T07:29:13;17.52;;;9.90;;
66342;SDS011;53144;51.524;5.080;2022-12-18T07:31:38;22.30;;;10.98;;
66342;SDS011;53144;51.524;5.080;2022-12-18T07:34:04;22.98;;;9.82;;
66342;SDS011;53144;51.524;5.080;2022-12-18T07:36:29;23.70;;;10.13;;
66342;SDS011;53144;51.524;5.080;2022-12-18T07:38:54;17.50;;;10.03;;
66342;SDS011;53144;51.524;5.080;2022-12-18T07:41:21;17.95;;;10.00;;
66342;SDS011;53144;51.524;5.080;2022-12-18T07:43:47;19.77;;;10.05;;
66342;SDS011;53144;51.524;5.080;2022-12-18T07:46:13;21.38;;;10.25;;
66342;SDS011;53144;51.524;5.080;2022-12-18T07:48:40;20.10;;;9.73;;
66342;SDS011;53144;51.524;5.080;2022-12-18T07:51:09;22.92;;;10.82;;
66342;SDS011;53144;51.524;5.080;2022-12-18T07:53:35;18.20;;;9.70;;
66342;SDS011;53144;51.524;5.080;2022-12-18T07:56:03;18.58;;;10.55;;
66342;SDS011;53144;51.524;5.080;2022-12-18T07:58:31;22.15;;;11.02;;
66342;SDS011;53144;51.524;5.080;2022-12-18T08:01:02;16.58;;;8.65;;
66342;SDS011;53144;51.524;5.080;2022-12-18T08:03:28;20.27;;;10.25;;
66342;SDS011;53144;51.524;5.080;2022-12-18T08:05:57;21.53;;;10.37;;
66342;SDS011;53144;51.524;5.080;2022-12-18T08:08:23;19.92;;;9.65;;
66342;SDS011;53144;51.524;5.080;2022-12-18T08:10:49;17.30;;;9.63;;
66342;SDS011;53144;51.524;5.080;2022-12-18T08:13:16;20.08;;;9.68;;
66342;SDS011;53144;51.524;5.080;2022-12-18T08:15:42;14.97;;;9.53;;
66342;SDS011;53144;51.524;5.080;2022-12-18T08:18:07;19.97;;;11.33;;
66342;SDS011;53144;51.524;5.080;2022-12-18T08:20:33;19.20;;;10.05;;
66342;SDS011;53144;51.524;5.080;2022-12-18T08:22:58;38.87;;;10.57;;
66342;SDS011;53144;51.524;5.080;2022-12-18T08:25:23;16.90;;;9.15;;
66342;SDS011;53144;51.524;5.080;2022-12-18T08:27:49;19.13;;;9.93;;
66342;SDS011;53144;51.524;5.080;2022-12-18T08:30:14;193.83;;;47.97;;
66342;SDS011;53144;51.524;5.080;2022-12-18T08:32:40;48.40;;;20.33;;
66342;SDS011;53144;51.524;5.080;2022-12-18T08:35:05;23.43;;;11.47;;
66342;SDS011;53144;51.524;5.080;2022-12-18T08:37:31;21.23;;;10.00;;
66342;SDS011;53144;51.524;5.080;2022-12-18T08:39:56;26.20;;;12.47;;
66342;SDS011;53144;51.524;5.080;2022-12-18T08:42:22;19.90;;;10.25;;
66342;SDS011;53144;51.524;5.080;2022-12-18T08:45:06;69.10;;;23.15;;
66342;SDS011;53144;51.524;5.080;2022-12-18T08:47:32;44.83;;;18.35;;
66342;SDS011;53144;51.524;5.080;2022-12-18T08:50:00;23.88;;;11.20;;
66342;SDS011;53144;51.524;5.080;2022-12-18T08:52:30;23.90;;;10.90;;
66342;SDS011;53144;51.524;5.080;2022-12-18T08:54:57;17.70;;;9.65;;
66342;SDS011;53144;51.524;5.080;2022-12-18T08:57:22;21.13;;;10.40;;
66342;SDS011;53144;51.524;5.080;2022-12-18T08:59:52;20.67;;;10.85;;
66342;SDS011;53144;51.524;5.080;2022-12-18T09:02:17;23.00;;;10.57;;
66342;SDS011;53144;51.524;5.080;2022-12-18T09:04:43;25.52;;;12.30;;
66342;SDS011;53144;51.524;5.080;2022-12-18T09:07:12;24.17;;;12.60;;
66342;SDS011;53144;51.524;5.080;2022-12-18T09:09:37;17.00;;;9.48;;
66342;SDS011;53144;51.524;5.080;2022-12-18T09:12:03;19.98;;;10.35;;
66342;SDS011;53144;51.524;5.080;2022-12-18T09:14:28;21.85;;;11.23;;
66342;SDS011;53144;51.524;5.080;2022-12-18T09:16:54;19.63;;;10.23;;
66342;SDS011;53144;51.524;5.080;2022-12-18T09:19:20;20.50;;;10.43;;
66342;SDS011;53144;51.524;5.080;2022-12-18T09:21:45;23.23;;;10.27;;
66342;SDS011;53144;51.524;5.080;2022-12-18T09:24:11;24.70;;;10.33;;
66342;SDS011;53144;51.524;5.080;2022-12-18T09:26:38;18.27;;;10.07;;
66342;SDS011;53144;51.524;5.080;2022-12-18T09:29:03;19.90;;;10.43;;
66342;SDS011;53144;51.524;5.080;2022-12-18T09:31:29;20.25;;;11.10;;
66342;SDS011;53144;51.524;5.080;2022-12-18T09:33:55;19.15;;;11.40;;
66342;SDS011;53144;51.524;5.080;2022-12-18T09:36:21;20.08;;;11.20;;
66342;SDS011;53144;51.524;5.080;2022-12-18T09:38:47;16.90;;;10.25;;
66342;SDS011;53144;51.524;5.080;2022-12-18T09:43:42;18.80;;;10.77;;
66342;SDS011;53144;51.524;5.080;2022-12-18T09:46:15;19.65;;;10.25;;
66342;SDS011;53144;51.524;5.080;2022-12-18T09:48:48;19.48;;;10.43;;
66342;SDS011;53144;51.524;5.080;2022-12-18T09:51:17;20.02;;;10.27;;
66342;SDS011;53144;51.524;5.080;2022-12-18T09:53:55;17.08;;;10.20;;
66342;SDS011;53144;51.524;5.080;2022-12-18T09:56:28;18.83;;;10.02;;
66342;SDS011;53144;51.524;5.080;2022-12-18T09:59:00;17.58;;;9.82;;
66342;SDS011;53144;51.524;5.080;2022-12-18T10:01:30;19.77;;;10.27;;
66342;SDS011;53144;51.524;5.080;2022-12-18T10:03:57;18.88;;;9.70;;
66342;SDS011;53144;51.524;5.080;2022-12-18T10:08:51;18.55;;;9.80;;
66342;SDS011;53144;51.524;5.080;2022-12-18T10:22:01;18.35;;;10.02;;
66342;SDS011;53144;51.524;5.080;2022-12-18T10:29:43;20.70;;;11.57;;
66342;SDS011;53144;51.524;5.080;2022-12-18T10:32:29;23.63;;;11.63;;
66342;SDS011;53144;51.524;5.080;2022-12-18T10:34:56;18.00;;;10.18;;
66342;SDS011;53144;51.524;5.080;2022-12-18T10:37:26;17.02;;;10.52;;
66342;SDS011;53144;51.524;5.080;2022-12-18T10:40:09;12.02;;;6.93;;
66342;SDS011;53144;51.524;5.080;2022-12-18T10:42:39;21.52;;;11.30;;
66342;SDS011;53144;51.524;5.080;2022-12-18T10:45:14;25.38;;;11.60;;
66342;SDS011;53144;51.524;5.080;2022-12-18T10:47:44;18.85;;;11.10;;
66342;SDS011;53144;51.524;5.080;2022-12-18T10:52:56;21.27;;;10.70;;
66342;SDS011;53144;51.524;5.080;2022-12-18T10:55:30;18.88;;;11.05;;
66342;SDS011;53144;51.524;5.080;2022-12-18T11:01:07;21.75;;;11.32;;
66342;SDS011;53144;51.524;5.080;2022-12-18T11:03:39;22.98;;;11.52;;
66342;SDS011;53144;51.524;5.080;2022-12-18T11:06:10;13.98;;;8.65;;
66342;SDS011;53144;51.524;5.080;2022-12-18T11:08:37;22.27;;;11.43;;
66342;SDS011;53144;51.524;5.080;2022-12-18T11:11:15;18.40;;;10.63;;
66342;SDS011;53144;51.524;5.080;2022-12-18T11:14:04;15.50;;;9.65;;
66342;SDS011;53144;51.524;5.080;2022-12-18T11:16:36;21.75;;;10.63;;
66342;SDS011;53144;51.524;5.080;2022-12-18T11:21:58;21.30;;;10.48;;
66342;SDS011;53144;51.524;5.080;2022-12-18T11:24:34;19.58;;;10.95;;
66342;SDS011;53144;51.524;5.080;2022-12-18T11:27:05;19.23;;;10.48;;
66342;SDS011;53144;51.524;5.080;2022-12-18T11:29:35;20.75;;;11.38;;
66342;SDS011;53144;51.524;5.080;2022-12-18T11:34:39;24.08;;;13.00;;
66342;SDS011;53144;51.524;5.080;2022-12-18T11:37:09;20.90;;;11.52;;
66342;SDS011;53144;51.524;5.080;2022-12-18T11:39:37;16.17;;;9.40;;
66342;SDS011;53144;51.524;5.080;2022-12-18T11:44:44;15.32;;;8.45;;
66342;SDS011;53144;51.524;5.080;2022-12-18T11:52:38;23.52;;;11.75;;
66342;SDS011;53144;51.524;5.080;2022-12-18T11:55:12;17.98;;;10.77;;
66342;SDS011;53144;51.524;5.080;2022-12-18T12:00:58;18.20;;;10.88;;
66342;SDS011;53144;51.524;5.080;2022-12-18T12:03:51;21.80;;;11.00;;
66342;SDS011;53144;51.524;5.080;2022-12-18T12:09:18;17.90;;;10.50;;
66342;SDS011;53144;51.524;5.080;2022-12-18T12:14:46;21.48;;;12.00;;
66342;SDS011;53144;51.524;5.080;2022-12-18T12:17:27;19.52;;;10.73;;
66342;SDS011;53144;51.524;5.080;2022-12-18T12:33:47;22.45;;;12.25;;
66342;SDS011;53144;51.524;5.080;2022-12-18T12:39:13;20.63;;;11.95;;
66342;SDS011;53144;51.524;5.080;2022-12-18T12:41:42;22.52;;;12.43;;
66342;SDS011;53144;51.524;5.080;2022-12-18T12:44:40;22.95;;;11.73;;
66342;SDS011;53144;51.524;5.080;2022-12-18T12:47:12;23.13;;;12.02;;
66342;SDS011;53144;51.524;5.080;2022-12-18T12:49:45;21.08;;;12.20;;
66342;SDS011;53144;51.524;5.080;2022-12-18T12:52:27;20.52;;;12.07;;
66342;SDS011;53144;51.524;5.080;2022-12-18T12:57:34;17.65;;;10.57;;
66342;SDS011;53144;51.524;5.080;2022-12-18T13:00:11;20.55;;;11.68;;
66342;SDS011;53144;51.524;5.080;2022-12-18T13:02:56;19.15;;;11.60;;
66342;SDS011;53144;51.524;5.080;2022-12-18T13:05:38;20.05;;;11.95;;
66342;SDS011;53144;51.524;5.080;2022-12-18T13:08:34;17.70;;;11.00;;
66342;SDS011;53144;51.524;5.080;2022-12-18T13:11:54;19.38;;;10.80;;
66342;SDS011;53144;51.524;5.080;2022-12-18T13:14:35;19.45;;;11.38;;
66342;SDS011;53144;51.524;5.080;2022-12-18T13:19:39;21.15;;;12.43;;
66342;SDS011;53144;51.524;5.080;2022-12-18T13:22:12;14.93;;;8.23;;
66342;SDS011;53144;51.524;5.080;2022-12-18T13:24:50;20.38;;;11.13;;
66342;SDS011;53144;51.524;5.080;2022-12-18T13:28:17;24.00;;;13.27;;
66342;SDS011;53144;51.524;5.080;2022-12-18T13:46:19;22.48;;;12.20;;
66342;SDS011;53144;51.524;5.080;2022-12-18T13:49:01;22.15;;;12.38;;
66342;SDS011;53144;51.524;5.080;2022-12-18T13:51:49;21.02;;;12.35;;
66342;SDS011;53144;51.524;5.080;2022-12-18T13:54:18;22.02;;;11.98;;
66342;SDS011;53144;51.524;5.080;2022-12-18T13:57:05;19.00;;;11.27;;
66342;SDS011;53144;51.524;5.080;2022-12-18T13:59:53;21.60;;;12.40;;
66342;SDS011;53144;51.524;5.080;2022-12-18T14:02:21;21.25;;;11.70;;
66342;SDS011;53144;51.524;5.080;2022-12-18T14:04:48;21.85;;;11.60;;
66342;SDS011;53144;51.524;5.080;2022-12-18T14:07:15;18.60;;;10.27;;
66342;SDS011;53144;51.524;5.080;2022-12-18T14:09:46;22.30;;;12.68;;
66342;SDS011;53144;51.524;5.080;2022-12-18T14:12:15;20.33;;;12.65;;
66342;SDS011;53144;51.524;5.080;2022-12-18T14:15:02;27.08;;;13.25;;
66342;SDS011;53144;51.524;5.080;2022-12-18T14:17:29;25.13;;;13.00;;
66342;SDS011;53144;51.524;5.080;2022-12-18T14:19:56;21.90;;;12.38;;
66342;SDS011;53144;51.524;5.080;2022-12-18T14:22:25;23.85;;;13.07;;
66342;SDS011;53144;51.524;5.080;2022-12-18T14:25:06;21.25;;;12.90;;
66342;SDS011;53144;51.524;5.080;2022-12-18T14:27:46;24.67;;;12.57;;
66342;SDS011;53144;51.524;5.080;2022-12-18T14:30:35;21.13;;;12.80;;
66342;SDS011;53144;51.524;5.080;2022-12-18T14:35:34;22.52;;;12.48;;
66342;SDS011;53144;51.524;5.080;2022-12-18T14:38:37;20.02;;;11.93;;
66342;SDS011;53144;51.524;5.080;2022-12-18T14:40:58;23.58;;;12.60;;
66342;SDS011;53144;51.524;5.080;2022-12-18T14:43:35;20.60;;;12.57;;
66342;SDS011;53144;51.524;5.080;2022-12-18T14:46:02;23.38;;;13.60;;
66342;SDS011;53144;51.524;5.080;2022-12-18T14:48:39;23.40;;;13.55;;
66342;SDS011;53144;51.524;5.080;2022-12-18T14:53:39;23.38;;;11.90;;
66342;SDS011;53144;51.524;5.080;2022-12-18T14:56:13;21.73;;;12.30;;
66342;SDS011;53144;51.524;5.080;2022-12-18T14:58:48;20.67;;;12.90;;
66342;SDS011;53144;51.524;5.080;2022-12-18T15:01:24;23.88;;;12.43;;
66342;SDS011;53144;51.524;5.080;2022-12-18T15:03:54;21.17;;;12.80;;
66342;SDS011;53144;51.524;5.080;2022-12-18T15:06:25;23.08;;;12.25;;
66342;SDS011;53144;51.524;5.080;2022-12-18T15:08:56;22.75;;;13.70;;
66342;SDS011;53144;51.524;5.080;2022-12-18T15:11:32;20.23;;;12.65;;
66342;SDS011;53144;51.524;5.080;2022-12-18T15:14:21;23.50;;;14.65;;
66342;SDS011;53144;51.524;5.080;2022-12-18T15:16:50;22.13;;;12.60;;
66342;SDS011;53144;51.524;5.080;2022-12-18T15:19:18;20.40;;;12.60;;
66342;SDS011;53144;51.524;5.080;2022-12-18T15:21:46;23.70;;;13.18;;
66342;SDS011;53144;51.524;5.080;2022-12-18T15:24:19;29.45;;;12.82;;
66342;SDS011;53144;51.524;5.080;2022-12-18T15:26:49;26.45;;;12.88;;
66342;SDS011;53144;51.524;5.080;2022-12-18T15:29:17;23.13;;;13.95;;
66342;SDS011;53144;51.524;5.080;2022-12-18T15:31:45;23.15;;;13.40;;
66342;SDS011;53144;51.524;5.080;2022-12-18T15:34:27;21.55;;;13.77;;
66342;SDS011;53144;51.524;5.080;2022-12-18T15:39:18;25.00;;;13.82;;
66342;SDS011;53144;51.524;5.080;2022-12-18T15:41:44;23.02;;;13.48;;
66342;SDS011;53144;51.524;5.080;2022-12-18T15:44:30;27.35;;;12.90;;
66342;SDS011;53144;51.524;5.080;2022-12-18T15:46:55;22.17;;;13.15;;
66342;SDS011;53144;51.524;5.080;2022-12-18T15:49:21;24.65;;;13.23;;
66342;SDS011;53144;51.524;5.080;2022-12-18T15:51:48;23.00;;;13.82;;
66342;SDS011;53144;51.524;5.080;2022-12-18T15:54:17;21.95;;;12.95;;
66342;SDS011;53144;51.524;5.080;2022-12-18T15:56:42;20.15;;;12.85;;
66342;SDS011;53144;51.524;5.080;2022-12-18T15:59:26;22.77;;;13.75;;
66342;SDS011;53144;51.524;5.080;2022-12-18T16:01:52;23.15;;;12.80;;
66342;SDS011;53144;51.524;5.080;2022-12-18T16:04:18;23.60;;;13.45;;
66342;SDS011;53144;51.524;5.080;2022-12-18T16:06:45;24.75;;;13.60;;
66342;SDS011;53144;51.524;5.080;2022-12-18T16:09:11;24.42;;;13.95;;
66342;SDS011;53144;51.524;5.080;2022-12-18T16:11:37;22.90;;;13.85;;
66342;SDS011;53144;51.524;5.080;2022-12-18T16:16:50;21.58;;;12.85;;
66342;SDS011;53144;51.524;5.080;2022-12-18T16:19:16;28.25;;;14.23;;
66342;SDS011;53144;51.524;5.080;2022-12-18T16:21:42;23.17;;;14.38;;
66342;SDS011;53144;51.524;5.080;2022-12-18T16:24:15;23.88;;;14.02;;
66342;SDS011;53144;51.524;5.080;2022-12-18T16:26:49;22.65;;;14.00;;
66342;SDS011;53144;51.524;5.080;2022-12-18T16:29:18;21.98;;;13.82;;
66342;SDS011;53144;51.524;5.080;2022-12-18T16:34:23;25.73;;;14.93;;
66342;SDS011;53144;51.524;5.080;2022-12-18T16:36:56;26.67;;;14.45;;
66342;SDS011;53144;51.524;5.080;2022-12-18T16:39:23;27.20;;;16.20;;
66342;SDS011;53144;51.524;5.080;2022-12-18T16:41:49;26.70;;;15.13;;
66342;SDS011;53144;51.524;5.080;2022-12-18T16:44:14;24.88;;;14.98;;
66342;SDS011;53144;51.524;5.080;2022-12-18T16:46:40;26.10;;;15.13;;
66342;SDS011;53144;51.524;5.080;2022-12-18T16:49:10;24.40;;;16.20;;
66342;SDS011;53144;51.524;5.080;2022-12-18T16:51:37;23.35;;;12.82;;
66342;SDS011;53144;51.524;5.080;2022-12-18T16:54:02;22.25;;;13.15;;